createdAt,value
2019-05-09T00:00:36.196Z,4.60
2019-05-09T00:03:05.816Z,3.52
2019-05-09T00:05:35.361Z,2.75
2019-05-09T00:08:05.129Z,3.90
2019-05-09T00:10:39.465Z,3.25
2019-05-09T00:13:05.977Z,3.00
2019-05-09T00:15:35.597Z,5.85
2019-05-09T00:18:05.165Z,4.80
2019-05-09T00:20:36.359Z,2.67
2019-05-09T00:23:06.908Z,4.65
2019-05-09T00:25:36.448Z,3.12
2019-05-09T00:28:06.601Z,3.65
2019-05-09T00:30:54.839Z,5.58
2019-05-09T00:33:28.606Z,3.35
2019-05-09T00:35:58.224Z,3.37
2019-05-09T00:38:29.442Z,3.52
2019-05-09T00:40:59.220Z,5.35
2019-05-09T00:43:28.875Z,4.15
2019-05-09T00:46:04.239Z,5.65
2019-05-09T00:48:36.108Z,4.65
2019-05-09T00:51:05.698Z,3.52
2019-05-09T00:53:35.231Z,5.22
2019-05-09T00:56:04.782Z,4.50
2019-05-09T00:58:34.320Z,3.20
2019-05-09T01:01:04.561Z,2.90
2019-05-09T01:03:34.261Z,2.83
2019-05-09T01:06:04.530Z,3.27
2019-05-09T01:08:34.256Z,3.70
2019-05-09T01:11:11.807Z,3.65
2019-05-09T01:13:35.110Z,3.52
2019-05-09T01:16:04.863Z,6.37
2019-05-09T01:18:36.148Z,2.62
2019-05-09T01:21:05.845Z,3.85
2019-05-09T01:23:35.477Z,3.05
2019-05-09T01:26:05.199Z,2.52
2019-05-09T01:28:34.814Z,3.98
2019-05-09T01:31:04.494Z,2.80
2019-05-09T01:33:38.247Z,2.60
2019-05-09T01:36:07.929Z,2.85
2019-05-09T01:38:37.613Z,3.87
2019-05-09T01:41:07.289Z,9.55
2019-05-09T01:43:36.844Z,4.70
2019-05-09T01:46:06.452Z,3.37
2019-05-09T01:48:36.028Z,5.03
2019-05-09T01:51:05.569Z,5.67
2019-05-09T01:53:36.832Z,6.60
2019-05-09T01:56:06.460Z,4.95
2019-05-09T01:58:36.025Z,5.47
2019-05-09T02:01:07.352Z,5.08
2019-05-09T02:03:36.900Z,7.95
2019-05-09T02:06:06.828Z,4.60
2019-05-09T02:08:36.437Z,6.03
2019-05-09T02:11:05.981Z,6.50
2019-05-09T02:13:35.533Z,6.80
2019-05-09T02:16:09.572Z,7.25
2019-05-09T02:18:44.098Z,4.53
2019-05-09T02:21:14.740Z,4.15
2019-05-09T02:23:44.343Z,4.92
2019-05-09T02:26:13.876Z,5.12
2019-05-09T02:28:44.401Z,4.12
2019-05-09T02:31:16.233Z,5.12
2019-05-09T02:33:45.896Z,3.87
2019-05-09T02:36:18.658Z,3.75
2019-05-09T02:38:48.735Z,5.12
2019-05-09T02:41:19.732Z,5.15
2019-05-09T02:43:50.329Z,4.97
2019-05-09T02:46:24.280Z,5.97
2019-05-09T02:48:53.822Z,4.67
2019-05-09T02:51:23.373Z,3.98
2019-05-09T02:53:52.924Z,4.22
2019-05-09T02:56:23.509Z,4.05
2019-05-09T02:59:10.546Z,5.35
2019-05-09T03:01:41.783Z,4.25
2019-05-09T03:04:11.340Z,4.00
2019-05-09T03:06:40.937Z,5.12
2019-05-09T03:09:10.544Z,6.70
2019-05-09T03:11:40.152Z,4.83
2019-05-09T03:14:09.707Z,9.93
2019-05-09T03:16:39.968Z,6.30
2019-05-09T03:19:09.666Z,5.72
2019-05-09T03:21:40.909Z,6.58
2019-05-09T03:24:11.405Z,4.90
2019-05-09T03:26:42.648Z,4.08
2019-05-09T03:29:19.047Z,5.28
2019-05-09T03:31:50.028Z,5.35
2019-05-09T03:34:19.954Z,4.03
2019-05-09T03:36:50.578Z,6.77
2019-05-09T03:39:20.312Z,6.58
2019-05-09T03:41:49.920Z,5.35
2019-05-09T03:44:19.558Z,4.03
2019-05-09T03:46:53.715Z,4.15
2019-05-09T03:49:24.751Z,4.37
2019-05-09T03:51:54.302Z,5.07
2019-05-09T03:54:23.849Z,4.05
2019-05-09T03:57:00.916Z,4.58
2019-05-09T03:59:30.460Z,4.58
2019-05-09T04:02:00.025Z,3.67
2019-05-09T04:04:29.581Z,4.95
2019-05-09T04:06:59.135Z,7.35
2019-05-09T04:09:28.682Z,6.78
2019-05-09T04:12:00.213Z,4.83
2019-05-09T04:14:31.119Z,4.90
2019-05-09T04:17:00.689Z,6.17
2019-05-09T04:19:30.228Z,4.97
2019-05-09T04:22:02.237Z,6.10
2019-05-09T04:24:31.322Z,4.70
2019-05-09T04:27:03.507Z,4.58
2019-05-09T04:29:33.076Z,6.22
2019-05-09T04:32:03.137Z,8.40
2019-05-09T04:34:32.684Z,6.58
2019-05-09T04:37:02.245Z,5.08
2019-05-09T04:39:31.796Z,9.15
2019-05-09T04:42:05.364Z,6.45
2019-05-09T04:44:40.034Z,6.40
2019-05-09T04:47:09.661Z,6.33
2019-05-09T04:49:40.868Z,8.25
2019-05-09T04:52:10.440Z,3.50
2019-05-09T04:54:39.996Z,5.70
2019-05-09T04:57:09.616Z,4.90
2019-05-09T04:59:39.164Z,5.42
2019-05-09T05:02:12.973Z,4.80
2019-05-09T05:04:42.765Z,6.72
2019-05-09T05:07:12.314Z,10.78
2019-05-09T05:09:41.940Z,5.53
2019-05-09T05:12:11.561Z,5.15
2019-05-09T05:14:41.160Z,5.12
2019-05-09T05:17:11.476Z,5.05
2019-05-09T05:19:41.219Z,6.10
2019-05-09T05:22:12.404Z,3.55
2019-05-09T05:24:48.795Z,6.15
2019-05-09T05:27:19.027Z,10.08
2019-05-09T05:29:48.640Z,5.08
2019-05-09T05:32:22.392Z,6.90
2019-05-09T05:34:59.320Z,3.87
2019-05-09T05:37:28.862Z,3.27
2019-05-09T05:39:58.479Z,4.75
2019-05-09T05:42:29.147Z,3.17
2019-05-09T05:44:58.688Z,4.60
2019-05-09T05:47:29.881Z,6.05
2019-05-09T05:49:59.422Z,5.03
2019-05-09T05:52:29.089Z,3.95
2019-05-09T05:54:58.590Z,4.22
2019-05-09T05:57:28.150Z,4.37
2019-05-09T05:59:58.509Z,4.12
2019-05-09T06:02:28.271Z,4.45
2019-05-09T06:04:58.030Z,4.30
2019-05-09T06:07:28.480Z,6.55
2019-05-09T06:09:58.153Z,4.20
2019-05-09T06:12:27.860Z,4.62
2019-05-09T06:14:58.202Z,5.10
2019-05-09T06:17:28.621Z,5.75
2019-05-09T06:19:59.069Z,4.58
2019-05-09T06:22:28.696Z,7.37
2019-05-09T06:24:59.211Z,4.55
2019-05-09T06:27:28.893Z,3.22
2019-05-09T06:29:58.501Z,3.75
2019-05-09T06:32:28.136Z,4.62
2019-05-09T06:34:57.965Z,5.08
2019-05-09T06:37:27.816Z,5.90
2019-05-09T06:39:58.302Z,5.15
2019-05-09T06:42:29.019Z,5.05
2019-05-09T06:45:01.247Z,7.00
2019-05-09T06:47:33.401Z,5.20
2019-05-09T06:50:04.968Z,5.87
2019-05-09T06:52:34.506Z,4.95
2019-05-09T06:55:08.350Z,4.60
2019-05-09T06:57:42.260Z,7.42
2019-05-09T07:00:10.496Z,6.90
2019-05-09T07:02:44.251Z,6.92
2019-05-09T07:05:45.355Z,5.15
2019-05-09T07:08:18.332Z,6.58
2019-05-09T07:10:48.386Z,6.53
2019-05-09T07:13:18.988Z,8.95
2019-05-09T07:15:48.603Z,7.10
2019-05-09T07:18:18.438Z,5.47
2019-05-09T07:20:48.377Z,7.67
2019-05-09T07:23:19.113Z,10.45
2019-05-09T07:25:58.865Z,3.90
2019-05-09T07:28:28.502Z,5.97
2019-05-09T07:31:11.867Z,5.15
2019-05-09T07:33:43.067Z,5.37
2019-05-09T07:36:12.612Z,7.78
2019-05-09T07:38:42.165Z,6.03
2019-05-09T07:41:11.717Z,3.65
2019-05-09T07:43:41.264Z,8.15
2019-05-09T07:46:21.503Z,5.47
2019-05-09T07:48:52.687Z,5.40
2019-05-09T07:51:22.332Z,3.02
2019-05-09T07:53:51.852Z,8.05
2019-05-09T07:56:21.767Z,9.73
2019-05-09T07:58:51.444Z,6.50
2019-05-09T08:01:21.169Z,4.42
2019-05-09T08:03:50.853Z,3.90
2019-05-09T08:06:20.529Z,8.73
2019-05-09T08:08:50.069Z,7.58
2019-05-09T08:11:19.675Z,7.08
2019-05-09T08:13:49.223Z,5.65
2019-05-09T08:16:18.851Z,5.22
2019-05-09T08:18:49.400Z,5.58
2019-05-09T08:21:18.935Z,6.72
2019-05-09T08:23:48.698Z,8.40
2019-05-09T08:26:18.985Z,7.12
2019-05-09T08:28:49.580Z,11.00
2019-05-09T08:31:19.191Z,9.75
2019-05-09T08:33:48.885Z,9.10
2019-05-09T08:36:20.186Z,10.18
2019-05-09T08:38:49.747Z,9.65
2019-05-09T08:41:19.294Z,11.25
2019-05-09T08:43:48.917Z,9.23
2019-05-09T08:46:18.611Z,10.48
2019-05-09T08:48:49.203Z,7.25
2019-05-09T08:51:35.313Z,8.08
2019-05-09T08:53:57.908Z,10.05
2019-05-09T08:56:28.366Z,7.12
2019-05-09T08:59:01.961Z,4.97
2019-05-09T09:01:48.044Z,4.30
2019-05-09T09:04:00.631Z,5.62
2019-05-09T09:06:30.179Z,4.97
2019-05-09T09:08:59.719Z,5.95
2019-05-09T09:11:29.277Z,3.27
2019-05-09T09:13:58.810Z,3.90
2019-05-09T09:16:28.437Z,4.03
2019-05-09T09:18:58.527Z,3.87
2019-05-09T09:21:28.686Z,3.42
2019-05-09T09:23:58.443Z,4.22
2019-05-09T09:26:28.012Z,5.45
2019-05-09T09:28:58.593Z,4.53
2019-05-09T09:31:28.630Z,3.67
2019-05-09T09:33:58.669Z,6.97
2019-05-09T09:36:29.270Z,6.83
2019-05-09T09:38:58.834Z,3.15
2019-05-09T09:41:28.838Z,3.55
2019-05-09T09:43:58.563Z,4.00
2019-05-09T09:46:28.703Z,4.08
2019-05-09T09:48:58.969Z,4.65
2019-05-09T09:51:28.581Z,3.62
2019-05-09T09:53:58.493Z,6.22
2019-05-09T09:56:28.441Z,4.62
2019-05-09T09:59:14.599Z,2.80
2019-05-09T10:01:47.807Z,3.70
2019-05-09T10:04:23.851Z,3.55
2019-05-09T10:06:53.012Z,5.12
2019-05-09T10:09:20.859Z,2.72
2019-05-09T10:11:50.541Z,2.50
2019-05-09T10:14:28.414Z,1.80
2019-05-09T10:17:14.813Z,2.17
2019-05-09T10:19:48.215Z,2.85
2019-05-09T10:22:26.190Z,3.72
2019-05-09T10:24:58.390Z,3.08
2019-05-09T10:27:28.322Z,2.20
2019-05-09T10:29:58.176Z,1.60
2019-05-09T10:32:28.847Z,1.47
2019-05-09T10:34:58.644Z,1.57
2019-05-09T10:37:28.349Z,1.17
2019-05-09T10:39:58.223Z,4.53
2019-05-09T10:42:38.225Z,1.27
2019-05-09T10:45:09.663Z,2.27
2019-05-09T10:47:40.578Z,1.85
2019-05-09T10:50:10.270Z,2.25
2019-05-09T10:52:40.282Z,1.57
2019-05-09T10:55:09.914Z,1.15
2019-05-09T10:57:42.553Z,1.47
2019-05-09T11:00:11.453Z,2.10
2019-05-09T11:02:41.024Z,1.75
2019-05-09T11:05:10.817Z,1.40
2019-05-09T11:07:40.447Z,1.52
2019-05-09T11:10:24.423Z,1.52
2019-05-09T11:12:42.262Z,1.40
2019-05-09T11:15:13.952Z,3.17
2019-05-09T11:17:43.514Z,0.95
2019-05-09T11:20:13.914Z,2.87
2019-05-09T11:22:43.460Z,2.10
2019-05-09T11:25:13.688Z,2.83
2019-05-09T11:27:43.238Z,1.72
2019-05-09T11:30:13.278Z,2.40
2019-05-09T11:32:42.891Z,2.45
2019-05-09T11:35:12.673Z,1.98
2019-05-09T11:37:42.872Z,1.75
2019-05-09T11:40:12.784Z,1.60
2019-05-09T11:42:42.644Z,1.75
2019-05-09T11:45:12.432Z,4.08
2019-05-09T11:47:46.262Z,2.58
2019-05-09T11:50:13.881Z,2.50
2019-05-09T11:52:43.510Z,4.28
2019-05-09T11:55:28.535Z,3.55
2019-05-09T11:57:44.579Z,2.70
2019-05-09T12:00:14.569Z,2.52
2019-05-09T12:02:44.398Z,2.12
2019-05-09T12:05:14.562Z,2.95
2019-05-09T12:07:44.127Z,3.08
2019-05-09T12:10:14.013Z,3.02
2019-05-09T12:12:43.572Z,4.37
2019-05-09T12:15:13.261Z,2.98
2019-05-09T12:17:56.064Z,3.67
2019-05-09T12:20:14.137Z,1.93
2019-05-09T12:22:43.770Z,2.77
2019-05-09T12:25:13.581Z,2.40
2019-05-09T12:27:43.126Z,4.33
2019-05-09T12:30:12.912Z,2.35
2019-05-09T12:32:42.578Z,5.25
2019-05-09T12:35:12.253Z,2.85
2019-05-09T12:37:41.862Z,3.10
2019-05-09T12:40:11.703Z,2.58
2019-05-09T12:42:41.305Z,2.47
2019-05-09T12:45:11.081Z,2.58
2019-05-09T12:47:40.632Z,2.58
2019-05-09T12:50:10.499Z,2.42
2019-05-09T12:52:40.040Z,1.65
2019-05-09T12:55:12.670Z,3.12
2019-05-09T12:57:40.923Z,1.90
2019-05-09T13:00:11.093Z,3.92
2019-05-09T13:02:40.591Z,1.60
2019-05-09T13:05:10.249Z,4.15
2019-05-09T13:07:42.323Z,2.47
2019-05-09T13:10:11.085Z,8.13
2019-05-09T13:12:40.732Z,1.67
2019-05-09T13:15:10.365Z,1.57
2019-05-09T13:17:41.611Z,3.95
2019-05-09T13:20:13.362Z,1.62
2019-05-09T13:22:42.890Z,1.60
2019-05-09T13:25:12.514Z,2.22
2019-05-09T13:27:42.048Z,2.45
2019-05-09T13:30:12.250Z,1.77
2019-05-09T13:32:41.800Z,1.75
2019-05-09T13:35:11.473Z,2.60
2019-05-09T13:37:41.999Z,2.25
2019-05-09T13:40:11.795Z,2.95
2019-05-09T13:42:41.337Z,2.30
2019-05-09T13:45:11.020Z,3.58
2019-05-09T13:47:40.711Z,3.17
2019-05-09T13:50:10.511Z,3.45
2019-05-09T13:52:40.062Z,2.52
2019-05-09T13:55:09.592Z,2.60
2019-05-09T13:57:39.234Z,1.87
2019-05-09T14:00:10.115Z,3.00
2019-05-09T14:02:39.672Z,5.08
2019-05-09T14:05:09.370Z,2.65
2019-05-09T14:07:38.900Z,3.75
2019-05-09T14:10:10.362Z,2.10
2019-05-09T14:12:40.324Z,1.90
2019-05-09T14:15:10.100Z,2.30
2019-05-09T14:17:49.286Z,4.25
2019-05-09T14:20:10.981Z,2.20
2019-05-09T14:22:40.615Z,3.45
2019-05-09T14:25:11.493Z,2.00
2019-05-09T14:27:41.500Z,2.10
2019-05-09T14:30:12.179Z,2.52
2019-05-09T14:32:41.726Z,2.42
2019-05-09T14:35:11.350Z,2.25
2019-05-09T14:37:40.913Z,4.58
2019-05-09T14:40:10.623Z,2.42
2019-05-09T14:42:41.126Z,4.37
2019-05-09T14:45:10.901Z,8.25
2019-05-09T14:47:42.465Z,2.75
2019-05-09T14:50:11.786Z,3.02
2019-05-09T14:52:41.406Z,2.77
2019-05-09T14:55:11.018Z,4.67
2019-05-09T14:57:40.572Z,3.58
2019-05-09T15:00:10.445Z,4.15
2019-05-09T15:02:40.052Z,3.65
2019-05-09T15:05:09.874Z,4.10
2019-05-09T15:07:40.364Z,4.70
2019-05-09T15:10:10.094Z,5.00
2019-05-09T15:12:39.724Z,3.98
2019-05-09T15:15:09.636Z,4.95
2019-05-09T15:17:39.163Z,5.50
2019-05-09T15:20:09.096Z,4.33
2019-05-09T15:22:39.816Z,4.05
2019-05-09T15:25:09.667Z,5.03
2019-05-09T15:27:39.189Z,5.92
2019-05-09T15:30:10.535Z,6.78
2019-05-09T15:32:40.161Z,4.90
2019-05-09T15:35:10.049Z,5.17
2019-05-09T15:37:39.682Z,4.20
2019-05-09T15:40:09.460Z,4.90
2019-05-09T15:42:39.251Z,4.53
2019-05-09T15:45:09.457Z,6.83
2019-05-09T15:47:39.365Z,7.40
2019-05-09T15:50:19.310Z,5.37
2019-05-09T15:52:40.802Z,6.03
2019-05-09T15:55:11.315Z,5.92
2019-05-09T15:57:40.865Z,6.30
2019-05-09T16:00:12.732Z,5.72
2019-05-09T16:05:11.187Z,7.60
2019-05-09T16:07:40.912Z,8.10
2019-05-09T16:10:10.612Z,7.60
2019-05-09T16:12:40.175Z,8.50
2019-05-09T16:15:10.235Z,8.20
2019-05-09T16:17:40.866Z,7.50
2019-05-09T16:20:10.648Z,8.50
2019-05-09T16:22:40.342Z,7.58
2019-05-09T16:25:10.201Z,12.33
2019-05-09T16:27:39.755Z,8.25
2019-05-09T16:30:10.326Z,7.90
2019-05-09T16:32:39.933Z,7.53
2019-05-09T16:35:09.615Z,7.58
2019-05-09T16:37:57.268Z,10.13
2019-05-09T16:40:10.421Z,8.50
2019-05-09T16:42:40.237Z,8.18
2019-05-09T16:45:10.822Z,8.55
2019-05-09T16:47:40.448Z,7.45
2019-05-09T16:50:12.180Z,8.55
2019-05-09T16:52:43.457Z,8.10
2019-05-09T16:55:14.938Z,7.30
2019-05-09T16:57:44.459Z,9.03
2019-05-09T17:00:18.392Z,7.03
2019-05-09T17:02:48.272Z,6.90
2019-05-09T17:05:17.943Z,7.50
2019-05-09T17:07:47.683Z,8.70
2019-05-09T17:10:17.802Z,10.48
2019-05-09T17:12:47.903Z,7.35
2019-05-09T17:15:19.211Z,9.00
2019-05-09T17:17:48.823Z,10.98
2019-05-09T17:20:20.147Z,8.25
2019-05-09T17:23:14.453Z,9.25
2019-05-09T17:25:40.268Z,11.40
2019-05-09T17:28:09.880Z,11.18
2019-05-09T17:30:39.575Z,12.93
2019-05-09T17:33:09.252Z,10.45
2019-05-09T17:35:38.869Z,11.48
2019-05-09T17:38:08.854Z,11.38
2019-05-09T17:40:39.319Z,12.73
2019-05-09T17:43:10.048Z,11.20
2019-05-09T17:45:42.225Z,15.85
2019-05-09T17:48:11.001Z,10.68
2019-05-09T17:50:40.629Z,10.58
2019-05-09T17:53:10.183Z,12.25
2019-05-09T17:55:39.890Z,16.85
2019-05-09T17:58:09.520Z,10.88
2019-05-09T18:00:39.481Z,12.80
2019-05-09T18:03:09.047Z,12.98
2019-05-09T18:05:39.119Z,11.97
2019-05-09T18:08:08.878Z,13.22
2019-05-09T18:10:38.491Z,13.43
2019-05-09T18:13:08.273Z,14.45
2019-05-09T18:15:38.209Z,14.33
2019-05-09T18:18:10.309Z,15.40
2019-05-09T18:23:09.296Z,16.10
2019-05-09T18:25:38.858Z,15.18
2019-05-09T18:28:09.165Z,19.20
2019-05-09T18:30:38.988Z,17.52
2019-05-09T18:33:13.081Z,18.95
2019-05-09T18:35:42.762Z,16.70
2019-05-09T18:38:17.342Z,16.82
2019-05-09T18:40:48.036Z,15.88
2019-05-09T18:43:17.928Z,20.57
2019-05-09T18:45:48.220Z,16.77
2019-05-09T18:48:18.666Z,18.65
2019-05-09T18:50:50.669Z,16.27
2019-05-09T18:53:21.814Z,16.55
2019-05-09T18:55:51.366Z,19.30
2019-05-09T18:58:21.008Z,17.42
2019-05-09T19:00:52.202Z,16.35
2019-05-09T19:03:21.839Z,19.37
2019-05-09T19:05:51.438Z,20.05
2019-05-09T19:08:21.047Z,16.90
2019-05-09T19:10:52.288Z,18.50
2019-05-09T19:13:22.132Z,16.80
2019-05-09T19:15:58.714Z,18.45
2019-05-09T19:18:31.605Z,19.12
2019-05-09T19:21:04.283Z,22.00
2019-05-09T19:23:33.833Z,21.73
2019-05-09T19:26:05.015Z,18.85
2019-05-09T19:28:34.711Z,19.27
2019-05-09T19:31:04.326Z,23.52
2019-05-09T19:33:33.938Z,19.37
2019-05-09T19:36:03.644Z,18.75
2019-05-09T19:38:33.719Z,14.20
2019-05-09T19:41:03.268Z,14.58
2019-05-09T19:43:32.817Z,18.23
2019-05-09T19:46:03.368Z,17.05
2019-05-09T19:48:34.611Z,16.70
2019-05-09T19:51:04.175Z,16.17
2019-05-09T19:53:33.710Z,17.57
2019-05-09T19:56:03.350Z,17.05
2019-05-09T19:58:35.553Z,19.02
2019-05-09T20:01:05.205Z,20.92
2019-05-09T20:03:35.904Z,14.93
2019-05-09T20:06:05.757Z,23.67
2019-05-09T20:08:37.766Z,21.33
2019-05-09T20:13:59.766Z,18.17
2019-05-09T20:16:30.966Z,17.02
2019-05-09T20:19:00.791Z,18.17
2019-05-09T20:21:31.974Z,14.07
2019-05-09T20:24:02.623Z,15.78
2019-05-09T20:26:32.233Z,15.43
2019-05-09T20:29:01.851Z,15.28
2019-05-09T20:31:31.538Z,17.82
2019-05-09T20:34:01.498Z,19.42
2019-05-09T20:36:31.193Z,19.57
2019-05-09T20:39:01.071Z,20.45
2019-05-09T20:41:32.588Z,15.75
2019-05-09T20:44:02.568Z,19.73
2019-05-09T20:46:32.514Z,16.42
2019-05-09T20:49:02.317Z,15.10
2019-05-09T20:51:32.203Z,15.65
2019-05-09T20:54:02.074Z,20.23
2019-05-09T20:56:31.965Z,19.70
2019-05-09T20:59:02.507Z,14.78
2019-05-09T21:01:32.347Z,15.83
2019-05-09T21:04:02.042Z,22.27
2019-05-09T21:06:31.911Z,19.55
2019-05-09T21:09:01.649Z,18.50
2019-05-09T21:11:33.067Z,17.55
2019-05-09T21:14:02.803Z,26.57
2019-05-09T21:16:32.612Z,17.65
2019-05-09T21:19:02.334Z,18.75
2019-05-09T21:21:32.145Z,20.75
2019-05-09T21:24:03.323Z,26.50
2019-05-09T21:26:33.068Z,31.30
2019-05-09T21:29:02.869Z,23.27
2019-05-09T21:31:32.617Z,23.07
2019-05-09T21:34:02.348Z,20.82
2019-05-09T21:36:31.900Z,20.40
2019-05-09T21:39:02.230Z,18.35
2019-05-09T21:41:33.135Z,19.45
2019-05-09T21:44:02.763Z,19.62
2019-05-09T21:46:32.407Z,19.42
2019-05-09T21:49:01.987Z,19.07
2019-05-09T21:51:31.522Z,17.60
2019-05-09T21:54:01.070Z,19.37
2019-05-09T21:56:30.611Z,19.90
2019-05-09T21:59:01.121Z,16.97
2019-05-09T22:01:30.967Z,19.75
2019-05-09T22:04:00.526Z,19.77
2019-05-09T22:06:30.058Z,20.15
2019-05-09T22:08:59.674Z,18.35
2019-05-09T22:11:29.287Z,18.07
2019-05-09T22:13:59.050Z,19.40
2019-05-09T22:16:28.594Z,20.92
2019-05-09T22:18:58.143Z,25.82
2019-05-09T22:21:27.683Z,16.77
2019-05-09T22:23:57.393Z,19.67
2019-05-09T22:26:27.937Z,17.12
2019-05-09T22:28:57.497Z,18.02
2019-05-09T22:31:27.025Z,20.95
2019-05-09T22:33:56.573Z,19.23
2019-05-09T22:36:26.255Z,20.40
2019-05-09T22:38:56.774Z,17.57
2019-05-09T22:41:26.319Z,16.05
2019-05-09T22:43:55.865Z,18.60
2019-05-09T22:46:25.538Z,14.68
2019-05-09T22:48:55.085Z,17.17
2019-05-09T22:51:24.619Z,14.40
2019-05-09T22:53:54.261Z,17.52
2019-05-09T22:56:23.800Z,14.35
2019-05-09T22:58:53.423Z,16.62
2019-05-09T23:01:22.996Z,15.43
2019-05-09T23:03:53.518Z,15.95
2019-05-09T23:06:23.158Z,15.65
2019-05-09T23:08:52.787Z,15.60
2019-05-09T23:11:22.412Z,16.48
2019-05-09T23:13:52.282Z,18.42
2019-05-09T23:16:23.748Z,13.15
2019-05-09T23:18:54.204Z,15.75
2019-05-09T23:21:25.472Z,18.40
2019-05-09T23:23:59.231Z,16.67
2019-05-09T23:26:28.877Z,15.32
2019-05-09T23:28:58.430Z,14.65
2019-05-09T23:31:35.334Z,17.52
2019-05-09T23:34:05.011Z,16.73
2019-05-09T23:36:34.586Z,15.72
2019-05-09T23:39:09.597Z,18.62
2019-05-09T23:41:39.171Z,21.15
2019-05-09T23:44:08.861Z,19.92
2019-05-09T23:46:38.461Z,21.68
2019-05-09T23:49:08.098Z,21.62
2019-05-09T23:51:46.839Z,25.90
2019-05-09T23:54:45.730Z,22.02
2019-05-09T23:57:25.380Z,24.00
